Timeline UpdatesTrip UpdatesNews PostsPvt PostsTravel TipsAdmin PostsConv PostsFollowed PostsChat RequestsBlog PostsPNR Posts

Disclaimer
Search
 
 
Tue Sep 2, 2014 19:33:29 ISTHomeTrainsΣChainsAtlasPNRForumGalleryNewsFAQTripsMembersLoginFeedback
No Recent News for this Train
Other Trains in the News **new
Latest...
⇐ Return Journey: Train# 14235

14236/Bareilly - Varanasi Express

Time-Table HAS CHANGED.
Yesterday (11:40PM)
Change Departure Station:
Change Arrival Station:
Post a Train Travel TipPost a Train Travel Tip **new
Post a Comment/Question/Picture/VideoPost a Comment/Question/Picture/Video
Pantry/Catering
✕ NO Pantry Car
✕ NO Catering
RSA - Rake Sharing
Rake/Coach Composition
LOCO-SLR-GS1-GS2-B1-S5-S4-S3-S2-S1-GS3-GS4-SLR. Blog# 943920.
Loco
News    PNR    Forum    Time-Table    Availability    Fare Chart    Map    Arr/Dep History    Trips    Gallery    ΣChains    X/O    Timeline    
Travel Time: 0h 22m    1 halts    Distance: 20 km    Avg Speed: 54 km/hr
Type: Mail/Express
Zone: NR/Northern
Departs @ 15:35
Platform# 3
SMTWTFS
Bareilly Junction/BE 
Arrives @ 15:57
Platform# ???
SMTWTFS
Pitambarpur/PMR 

1 halts. 2 intermediate Stations between Bareilly Junction and Pitambarpur

Show ALL intermediate Stations  Show Old Time-Table

#CodeStation NameX/OArrivesAvgDepartsAvgHaltPFDay#KmSpeedElevZoneAddress
1BE»Bareilly Junction (4)»  -15:35-310.057174mNRBareilly, Uttar Pradesh
2RYSRasuriya  15:46-15:48-2m--110.463174mNRNH 24, Uttar Pradesh
3PMR•Pitambarpur•  15:57-15:59-2m--119.957171mNRPitambarpur, Uttar Pradesh
4TSATisua  16:08-16:10-2m--128.453165mNRNational Highway 24, Uttar Pradesh
5BLPUBilpur  16:18-16:20-2m--135.454161mNRFatehganj, Uttar Pradesh
6MKMiranpur Katra  16:28-16:30-2m--142.658162mNRShahjahanpur, Uttar Pradesh
7TLHTilhar  16:42 16:40-16:44 16:42-2m--152.365163mNRTilhar, Uttar Pradesh
8BTRABanthra  16:53 16:51-16:55 16:53-2m--162.134154mNRNH 24, Uttar Pradesh
9SPNShahjahanpur Junction (3)X  17:07 17:08-17:12 17:13-5m1170.555156mNRShahjahanpur, Uttar Pradesh
10ROZARoza Junction (4)X  17:20 17:21-17:22 17:23-2m--177.851156mNRShahjahanpur, Uttar Pradesh
11KHKahiliyaX  17:33-17:35-2m--186.464152mNRSH 25, Uttar Pradesh
12AIGAlgawan  17:43-17:45-2m--194.954152mNRAlgawan, Uttar Pradesh
13AJIAnjhi ShahabadX  17:52-17:54-2m--1101.264148mNRAnjhi Shahabad, Uttar Pradesh
14TDPTodarpur  18:02-18:04-2m--1109.765147mNRSH 25, Uttar Pradesh
15BEGBehtagokulXO  18:11 18:10-18:13 18:12-2m--1116.159152mNRBehtagokul, Uttar Pradesh
16KUFKaurha  18:22 18:21-18:24 18:23-2m--1125.056148mNRSH 25, Uttar Pradesh
17HRIHardoi (5)X  18:33 18:32-18:35 18:34-2m31133.445146mNRHardoi, Uttar Pradesh
18KARKarnaX  18:48 18:47-18:50 18:49-2m--1143.256143mNRHardoi, Uttar Pradesh
19MSTMasitX  18:58 18:57-19:00 18:59-2m--1150.752141mNRSH 25, Uttar Pradesh
20BGHBaghauliX  19:08 19:07-19:10 19:09-2m--1157.752141mNRsharda nehar, Uttar Pradesh
21BLMBalamu Junction (4)  19:21 19:19-19:23 19:21-2m--1166.452139mNRBalamau, Uttar Pradesh
22DLQDalelnagarX  19:33 19:31-19:35 19:33-2m--1175.148136mNRSH 25, Uttar Pradesh
23UTAUmar Tali  19:42 19:41-19:44 19:43-2m--1181.440135mNRHardoi, Uttar Pradesh
24SANSandila (3)X  19:51-19:53-2m--1186.760132mNRSandila, Uttar Pradesh
25RBDRahimabadX  20:03 20:04-20:05 20:06-2m--1197.851132mNRSH 25, Uttar Pradesh
26DILDilawarnagarX  20:13 20:15-20:15 20:17-2m--1205.343133mNRSH 25, Uttar Pradesh
27MLDMalihabad  20:20 20:25-20:24 20:27-4 2m--1211.058130mNRMalihabad, Uttar Pradesh
28KKJKakori (3)XO  20:33 20:37-20:35 20:39-2m--1220.76129mNRSH 25, Uttar Pradesh
29LKOLucknow Charbagh (9)X  23:00 23:15-23:15 23:25-15 10m51235.245123mNR226004, Uttar Pradesh
30BBKBarabanki Junction (4)X  23:55 00:03-23:57 00:05-2m32263.860122mNRPin-225001, Uttar Pradesh
31DYDDaryabad  00:28 00:43-00:30 00:45-2m--2301.858116mNRFaizabad Rd, Uttar Pradesh
32RDLRudauli (2)  00:48 01:09-00:50 01:11-2m--2324.962112mNRRudauli, Uttar Pradesh
33FDFaizabad Junction (5)  01:48-01:53-5m12363.127104mNRFaizabad, Uttar Pradesh
34AYAyodhya Junction (3)X  02:08-02:10-2m12369.84098mNRAyodhya, Uttar Pradesh
35GGJGoshainGanj (3)  02:58-03:00-2m--2401.56798mNRGoshainganj, Uttar Pradesh
36ABPAkbarpur (2)X  03:20-03:22-2m--2423.77692mNRAkbarpur, Uttar Pradesh
37MLPRMalipur (2)  03:37-03:39-2m--2442.84792mNRMalipur, Uttar Pradesh
38SHGShahganj Junction (4)X  04:11-04:15-4m--2467.85390mNRShahganj, Uttar Pradesh
39KSKheta Sarai (1)04:27-04:29-2m12478.47288mNRKheta Sarai, Uttar Pradesh
40JNUJaunpur Junction (5)  04:48-04:50-2m--2501.13283mNRJaunpur, Uttar Pradesh
41ZBDZafarabad Junction (4)  05:02-05:04-2m--2507.54183mNRNational Highway 56, Uttar Pradesh
42BTPBabatpur (2)X  05:52-05:54-2m--2540.02084mNRSatomahua-Mangari Rd, Uttar Pradesh
43BSBVaranasi Junction (9)  06:50--82558.6-82mNRVaranasi 221002, Uttar Pradesh
Scroll to Top
Scroll to Bottom